Date,TemperatureHighF,TemperatureAvgF,TemperatureLowF,DewpointHighF,DewpointAvgF,DewpointLowF,HumidityHigh,HumidityAvg,HumidityLow,PressureMaxIn,PressureMinIn,WindSpeedMaxMPH,WindSpeedAvgMPH,GustSpeedMaxMPH,PrecipitationSumIn
2013-2-1,33.9,30.8,25.4,20.0,13.4,9.0,63,49,40,30.05,29.59,17,6,20,0.00
2013-2-2,32.5,26.8,21.5,27.0,15.2,7.0,90,63,44,30.24,30.04,13,6,19,0.00
2013-2-3,33.6,29.1,22.9,31.0,26.4,21.0,95,90,78,30.03,29.62,4,1,10,0.04
2013-2-4,32.3,27.4,23.9,26.0,15.5,10.0,91,63,41,29.93,29.65,22,4,23,0.00
2013-2-5,33.1,27.5,24.5,32.0,21.1,12.0,96,78,59,30.01,29.89,10,4,13,0.00
2013-2-6,36.0,32.8,29.5,33.0,28.1,16.0,97,84,55,30.24,29.87,10,2,13,0.01
2013-2-7,30.5,27.1,23.2,25.0,16.8,12.0,83,66,50,30.49,30.25,13,3,17,0.00
2013-2-8,35.7,33.0,30.6,34.0,30.1,25.0,98,89,78,30.46,29.26,56,21,62,0.66
2013-2-9,32.2,24.3,20.9,32.0,23.5,20.0,99,96,95,30.07,29.18,43,12,51,0.03
2013-2-10,31.7,25.3,21.0,28.0,23.2,20.0,96,92,79,30.37,30.08,12,2,14,0.00
2013-2-11,44.5,35.8,20.8,44.0,34.9,20.0,99,96,91,30.36,29.59,18,5,23,0.31
2013-2-12,45.7,39.5,34.3,43.0,33.1,27.0,100,80,52,29.85,29.57,14,5,20,0.01
2013-2-13,39.9,34.2,29.4,31.0,27.8,24.0,92,78,56,29.86,29.64,14,3,15,0.00
2013-2-14,41.6,35.3,28.6,36.0,30.7,26.0,97,84,58,30.01,29.65,8,2,13,0.18
2013-2-15,43.2,39.2,33.9,39.0,36.3,32.0,96,89,84,30.04,29.93,12,6,18,0.00
2013-2-16,41.3,36.7,30.1,37.0,34.8,29.0,98,92,84,29.93,29.60,15,5,24,0.01
2013-2-17,36.2,26.3,21.1,34.0,21.4,6.0,96,83,49,29.59,29.20,20,10,31,0.00
2013-2-18,32.6,25.1,18.5,11.0,7.4,4.0,63,48,32,30.14,29.60,17,8,29,0.00
2013-2-19,44.6,36.7,26.2,44.0,29.1,7.0,97,75,43,30.15,29.59,16,5,23,0.69
2013-2-20,41.6,34.2,27.0,41.0,24.7,12.0,98,71,46,29.75,29.53,14,6,21,0.04
2013-2-21,33.9,29.6,26.1,28.0,18.5,16.0,81,64,52,30.04,29.75,13,5,22,0.00
2013-2-22,37.0,35.7,33.1,31.0,28.6,27.0,86,75,69,30.34,30.05,15,5,19,0.00
2013-2-23,39.6,36.5,30.6,39.0,32.9,29.0,97,86,76,30.32,29.86,13,4,20,0.45
2013-2-24,43.2,39.2,33.0,43.0,38.6,33.0,98,98,97,29.85,29.50,20,12,28,1.72
2013-2-25,39.6,34.4,27.4,35.0,29.2,25.0,98,83,58,30.22,29.81,13,4,19,0.07
2013-2-26,40.8,35.2,25.7,37.0,29.8,24.0,96,81,62,30.32,30.13,13,4,16,0.00
2013-2-27,44.5,42.4,40.4,44.0,41.4,36.0,99,96,84,30.12,29.53,30,13,35,0.67
2013-2-28,42.8,39.0,36.1,41.0,38.1,35.0,99,96,91,29.62,29.47,10,3,14,0.02